sensor_id;sensor_type;location;lat;lon;timestamp;pressure;altitude;pressure_sealevel;temperature;humidity
22025;BME280;11176;51.448;6.650;2023-03-18T00:02:18;45422.22;;;-141.29;87.18
22025;BME280;11176;51.448;6.650;2023-03-18T00:04:45;45420.22;;;-141.29;86.63
22025;BME280;11176;51.448;6.650;2023-03-18T00:07:11;45434.19;;;-141.29;86.74
22025;BME280;11176;51.448;6.650;2023-03-18T00:09:38;45424.22;;;-141.29;86.61
22025;BME280;11176;51.448;6.650;2023-03-18T00:12:05;45422.22;;;-141.29;86.33
22025;BME280;11176;51.448;6.650;2023-03-18T00:14:34;45418.22;;;-141.29;86.57
22025;BME280;11176;51.448;6.650;2023-03-18T00:17:01;45430.22;;;-141.29;86.35
22025;BME280;11176;51.448;6.650;2023-03-18T00:19:28;45430.22;;;-141.29;86.16
22025;BME280;11176;51.448;6.650;2023-03-18T00:21:54;45426.22;;;-141.29;85.76
22025;BME280;11176;51.448;6.650;2023-03-18T00:24:21;45434.19;;;-141.29;86.04
22025;BME280;11176;51.448;6.650;2023-03-18T00:26:47;45418.22;;;-141.29;86.46
22025;BME280;11176;51.448;6.650;2023-03-18T00:29:14;45410.22;;;-141.29;86.48
22025;BME280;11176;51.448;6.650;2023-03-18T00:31:40;45426.22;;;-141.29;86.54
22025;BME280;11176;51.448;6.650;2023-03-18T00:34:07;45414.22;;;-141.29;86.45
22025;BME280;11176;51.448;6.650;2023-03-18T00:36:34;45426.22;;;-141.29;86.54
22025;BME280;11176;51.448;6.650;2023-03-18T00:39:02;45442.19;;;-141.29;86.96
22025;BME280;11176;51.448;6.650;2023-03-18T00:41:30;45428.22;;;-141.29;86.99
22025;BME280;11176;51.448;6.650;2023-03-18T00:43:58;45414.22;;;-141.29;87.23
22025;BME280;11176;51.448;6.650;2023-03-18T00:46:27;45458.19;;;-141.29;87.36
22025;BME280;11176;51.448;6.650;2023-03-18T00:48:56;45426.22;;;-141.29;87.59
22025;BME280;11176;51.448;6.650;2023-03-18T00:51:27;45450.19;;;-141.29;87.89
22025;BME280;11176;51.448;6.650;2023-03-18T00:53:55;45442.19;;;-141.29;88.32
22025;BME280;11176;51.448;6.650;2023-03-18T00:56:25;45422.22;;;-141.29;88.60
22025;BME280;11176;51.448;6.650;2023-03-18T00:58:52;45434.19;;;-141.29;88.88
22025;BME280;11176;51.448;6.650;2023-03-18T01:01:20;45438.19;;;-141.29;89.01
22025;BME280;11176;51.448;6.650;2023-03-18T01:03:48;45446.19;;;-141.29;89.11
22025;BME280;11176;51.448;6.650;2023-03-18T01:06:21;45456.19;;;-141.29;89.22
22025;BME280;11176;51.448;6.650;2023-03-18T01:08:49;45446.19;;;-141.29;89.35
22025;BME280;11176;51.448;6.650;2023-03-18T01:11:17;45440.19;;;-141.29;89.24
22025;BME280;11176;51.448;6.650;2023-03-18T01:13:44;45438.19;;;-141.29;89.28
22025;BME280;11176;51.448;6.650;2023-03-18T01:16:11;45424.22;;;-141.29;89.20
22025;BME280;11176;51.448;6.650;2023-03-18T01:18:39;45424.22;;;-141.29;89.50
22025;BME280;11176;51.448;6.650;2023-03-18T01:21:07;45454.19;;;-141.29;89.78
22025;BME280;11176;51.448;6.650;2023-03-18T01:23:38;45436.19;;;-141.29;90.10
22025;BME280;11176;51.448;6.650;2023-03-18T01:26:05;45432.19;;;-141.29;90.37
22025;BME280;11176;51.448;6.650;2023-03-18T01:28:32;45438.19;;;-141.29;90.18
22025;BME280;11176;51.448;6.650;2023-03-18T01:30:59;45438.19;;;-141.29;90.38
22025;BME280;11176;51.448;6.650;2023-03-18T01:33:26;45430.22;;;-141.29;90.40
22025;BME280;11176;51.448;6.650;2023-03-18T01:35:59;45450.19;;;-141.29;91.08
22025;BME280;11176;51.448;6.650;2023-03-18T01:38:29;45444.19;;;-141.29;91.83
22025;BME280;11176;51.448;6.650;2023-03-18T01:41:01;45422.22;;;-141.29;92.32
22025;BME280;11176;51.448;6.650;2023-03-18T01:43:33;45426.22;;;-141.29;92.65
22025;BME280;11176;51.448;6.650;2023-03-18T01:46:32;45430.22;;;-141.29;94.06
22025;BME280;11176;51.448;6.650;2023-03-18T01:49:02;45446.19;;;-141.29;95.10
22025;BME280;11176;51.448;6.650;2023-03-18T01:51:29;45438.19;;;-141.29;95.94
22025;BME280;11176;51.448;6.650;2023-03-18T01:53:58;45448.19;;;-141.29;97.70
22025;BME280;11176;51.448;6.650;2023-03-18T01:56:25;45438.19;;;-141.29;98.59
22025;BME280;11176;51.448;6.650;2023-03-18T01:58:54;45438.19;;;-141.29;99.15
22025;BME280;11176;51.448;6.650;2023-03-18T02:04:09;45454.19;;;-141.29;100.00
22025;BME280;11176;51.448;6.650;2023-03-18T02:06:39;45446.19;;;-141.29;100.00
22025;BME280;11176;51.448;6.650;2023-03-18T02:09:06;45444.19;;;-141.29;100.00
22025;BME280;11176;51.448;6.650;2023-03-18T02:11:37;45456.19;;;-141.29;100.00
22025;BME280;11176;51.448;6.650;2023-03-18T02:14:06;45438.19;;;-141.29;100.00
22025;BME280;11176;51.448;6.650;2023-03-18T02:16:46;45446.19;;;-141.29;100.00
22025;BME280;11176;51.448;6.650;2023-03-18T02:22:23;45438.19;;;-141.29;100.00
22025;BME280;11176;51.448;6.650;2023-03-18T02:25:15;45442.19;;;-141.29;100.00
22025;BME280;11176;51.448;6.650;2023-03-18T02:27:47;45458.19;;;-141.29;100.00
22025;BME280;11176;51.448;6.650;2023-03-18T02:30:26;45434.19;;;-141.29;100.00
22025;BME280;11176;51.448;6.650;2023-03-18T02:32:56;45454.19;;;-141.29;100.00
22025;BME280;11176;51.448;6.650;2023-03-18T02:35:26;45448.19;;;-141.29;100.00
22025;BME280;11176;51.448;6.650;2023-03-18T02:37:55;45446.19;;;-141.29;100.00
22025;BME280;11176;51.448;6.650;2023-03-18T02:40:28;45450.19;;;-141.29;100.00
22025;BME280;11176;51.448;6.650;2023-03-18T02:42:56;45450.19;;;-141.29;100.00
22025;BME280;11176;51.448;6.650;2023-03-18T02:48:19;45466.19;;;-141.29;100.00
22025;BME280;11176;51.448;6.650;2023-03-18T02:50:48;45446.19;;;-141.29;100.00
22025;BME280;11176;51.448;6.650;2023-03-18T02:53:15;45452.19;;;-141.29;100.00
22025;BME280;11176;51.448;6.650;2023-03-18T02:55:42;45466.19;;;-141.29;100.00
22025;BME280;11176;51.448;6.650;2023-03-18T02:58:09;45450.19;;;-141.29;100.00
22025;BME280;11176;51.448;6.650;2023-03-18T03:00:36;45446.19;;;-141.29;100.00
22025;BME280;11176;51.448;6.650;2023-03-18T03:03:03;45454.19;;;-141.29;100.00
22025;BME280;11176;51.448;6.650;2023-03-18T03:05:33;45466.19;;;-141.29;100.00
22025;BME280;11176;51.448;6.650;2023-03-18T03:08:00;45454.19;;;-141.29;100.00
22025;BME280;11176;51.448;6.650;2023-03-18T03:10:30;45450.19;;;-141.29;100.00
22025;BME280;11176;51.448;6.650;2023-03-18T03:12:58;45446.19;;;-141.29;100.00
22025;BME280;11176;51.448;6.650;2023-03-18T03:15:25;45470.19;;;-141.29;100.00
22025;BME280;11176;51.448;6.650;2023-03-18T03:17:56;45450.19;;;-141.29;100.00
22025;BME280;11176;51.448;6.650;2023-03-18T03:20:22;45462.19;;;-141.29;100.00
22025;BME280;11176;51.448;6.650;2023-03-18T03:22:50;45474.16;;;-141.29;100.00
22025;BME280;11176;51.448;6.650;2023-03-18T03:25:16;45478.16;;;-141.29;100.00
22025;BME280;11176;51.448;6.650;2023-03-18T03:27:43;45468.19;;;-141.29;100.00
22025;BME280;11176;51.448;6.650;2023-03-18T03:30:11;45466.19;;;-141.29;100.00
22025;BME280;11176;51.448;6.650;2023-03-18T03:32:37;45454.19;;;-141.29;100.00
22025;BME280;11176;51.448;6.650;2023-03-18T03:35:05;45464.19;;;-141.29;100.00
22025;BME280;11176;51.448;6.650;2023-03-18T03:37:35;45474.16;;;-141.29;100.00
22025;BME280;11176;51.448;6.650;2023-03-18T03:40:02;45470.19;;;-141.29;100.00
22025;BME280;11176;51.448;6.650;2023-03-18T03:42:31;45470.19;;;-141.29;100.00
22025;BME280;11176;51.448;6.650;2023-03-18T03:44:57;45470.19;;;-141.29;100.00
22025;BME280;11176;51.448;6.650;2023-03-18T03:47:24;45478.16;;;-141.29;100.00
22025;BME280;11176;51.448;6.650;2023-03-18T03:49:52;45456.19;;;-141.29;100.00
22025;BME280;11176;51.448;6.650;2023-03-18T03:52:19;45476.16;;;-141.29;100.00
22025;BME280;11176;51.448;6.650;2023-03-18T03:54:47;45478.16;;;-141.29;100.00
22025;BME280;11176;51.448;6.650;2023-03-18T03:57:14;45478.16;;;-141.29;100.00
22025;BME280;11176;51.448;6.650;2023-03-18T03:59:41;45440.19;;;-141.29;100.00
22025;BME280;11176;51.448;6.650;2023-03-18T04:02:14;45464.19;;;-141.29;100.00
22025;BME280;11176;51.448;6.650;2023-03-18T04:04:41;45466.19;;;-141.29;100.00
22025;BME280;11176;51.448;6.650;2023-03-18T04:07:15;45466.19;;;-141.29;100.00
22025;BME280;11176;51.448;6.650;2023-03-18T04:09:41;45470.19;;;-141.29;100.00
22025;BME280;11176;51.448;6.650;2023-03-18T04:12:09;45464.19;;;-141.29;100.00
22025;BME280;11176;51.448;6.650;2023-03-18T04:14:38;45474.16;;;-141.29;100.00
22025;BME280;11176;51.448;6.650;2023-03-18T04:17:04;45466.19;;;-141.29;100.00
22025;BME280;11176;51.448;6.650;2023-03-18T04:19:31;45488.16;;;-141.29;100.00
22025;BME280;11176;51.448;6.650;2023-03-18T04:21:59;45448.19;;;-141.29;100.00
22025;BME280;11176;51.448;6.650;2023-03-18T04:24:26;45466.19;;;-141.29;100.00
22025;BME280;11176;51.448;6.650;2023-03-18T04:26:53;45466.19;;;-141.29;100.00
22025;BME280;11176;51.448;6.650;2023-03-18T04:29:19;45470.19;;;-141.29;100.00
22025;BME280;11176;51.448;6.650;2023-03-18T04:31:46;45470.19;;;-141.29;100.00
22025;BME280;11176;51.448;6.650;2023-03-18T04:34:12;45446.19;;;-141.29;100.00
22025;BME280;11176;51.448;6.650;2023-03-18T04:36:39;45450.19;;;-141.29;100.00
22025;BME280;11176;51.448;6.650;2023-03-18T04:39:06;45458.19;;;-141.29;100.00
22025;BME280;11176;51.448;6.650;2023-03-18T04:41:35;45468.19;;;-141.29;100.00
22025;BME280;11176;51.448;6.650;2023-03-18T04:44:04;45474.16;;;-141.29;100.00
22025;BME280;11176;51.448;6.650;2023-03-18T04:46:39;45462.19;;;-141.29;100.00
22025;BME280;11176;51.448;6.650;2023-03-18T04:49:06;45446.19;;;-141.29;100.00
22025;BME280;11176;51.448;6.650;2023-03-18T04:51:33;45460.19;;;-141.29;100.00
22025;BME280;11176;51.448;6.650;2023-03-18T04:54:00;45466.19;;;-141.29;100.00
22025;BME280;11176;51.448;6.650;2023-03-18T04:56:29;45466.19;;;-141.29;100.00
22025;BME280;11176;51.448;6.650;2023-03-18T04:58:57;45462.19;;;-141.29;100.00
22025;BME280;11176;51.448;6.650;2023-03-18T05:01:29;45470.19;;;-141.29;100.00
22025;BME280;11176;51.448;6.650;2023-03-18T05:03:56;45470.19;;;-141.29;100.00
22025;BME280;11176;51.448;6.650;2023-03-18T05:06:30;45486.16;;;-141.29;100.00
22025;BME280;11176;51.448;6.650;2023-03-18T05:09:03;45468.19;;;-141.29;100.00
22025;BME280;11176;51.448;6.650;2023-03-18T05:11:35;45480.16;;;-141.29;100.00
22025;BME280;11176;51.448;6.650;2023-03-18T05:14:11;45466.19;;;-141.29;100.00
22025;BME280;11176;51.448;6.650;2023-03-18T05:16:42;45466.19;;;-141.29;100.00
22025;BME280;11176;51.448;6.650;2023-03-18T05:19:09;45486.16;;;-141.29;100.00
22025;BME280;11176;51.448;6.650;2023-03-18T05:21:42;45474.16;;;-141.29;100.00
22025;BME280;11176;51.448;6.650;2023-03-18T05:24:09;45482.16;;;-141.29;100.00
22025;BME280;11176;51.448;6.650;2023-03-18T05:26:39;45486.16;;;-141.29;100.00
22025;BME280;11176;51.448;6.650;2023-03-18T05:29:07;45474.16;;;-141.29;100.00
22025;BME280;11176;51.448;6.650;2023-03-18T05:31:55;45474.16;;;-141.29;100.00
22025;BME280;11176;51.448;6.650;2023-03-18T05:34:23;45470.19;;;-141.29;100.00
22025;BME280;11176;51.448;6.650;2023-03-18T05:36:50;45478.16;;;-141.29;100.00
22025;BME280;11176;51.448;6.650;2023-03-18T05:39:17;45458.19;;;-141.29;100.00
22025;BME280;11176;51.448;6.650;2023-03-18T05:41:43;45440.19;;;-141.29;100.00
22025;BME280;11176;51.448;6.650;2023-03-18T05:44:13;45486.16;;;-141.29;100.00
22025;BME280;11176;51.448;6.650;2023-03-18T05:46:41;45468.19;;;-141.29;100.00
22025;BME280;11176;51.448;6.650;2023-03-18T05:49:12;45470.19;;;-141.29;100.00
22025;BME280;11176;51.448;6.650;2023-03-18T05:51:53;45470.19;;;-141.29;100.00
22025;BME280;11176;51.448;6.650;2023-03-18T05:54:32;45472.16;;;-141.29;100.00
22025;BME280;11176;51.448;6.650;2023-03-18T05:56:59;45466.19;;;-141.29;100.00
22025;BME280;11176;51.448;6.650;2023-03-18T05:59:26;45470.19;;;-141.29;100.00
22025;BME280;11176;51.448;6.650;2023-03-18T06:01:56;45478.16;;;-141.29;100.00
22025;BME280;11176;51.448;6.650;2023-03-18T06:04:23;45458.19;;;-141.29;100.00
22025;BME280;11176;51.448;6.650;2023-03-18T06:06:51;45478.16;;;-141.29;100.00
22025;BME280;11176;51.448;6.650;2023-03-18T06:09:17;45482.16;;;-141.29;100.00
22025;BME280;11176;51.448;6.650;2023-03-18T06:11:45;45482.16;;;-141.29;100.00
22025;BME280;11176;51.448;6.650;2023-03-18T06:14:11;45478.16;;;-141.29;100.00
22025;BME280;11176;51.448;6.650;2023-03-18T06:16:39;45466.19;;;-141.29;100.00
22025;BME280;11176;51.448;6.650;2023-03-18T06:19:07;45476.16;;;-141.29;100.00
22025;BME280;11176;51.448;6.650;2023-03-18T06:21:35;45486.16;;;-141.29;100.00
22025;BME280;11176;51.448;6.650;2023-03-18T06:24:02;45458.19;;;-141.29;100.00
22025;BME280;11176;51.448;6.650;2023-03-18T06:26:31;45476.16;;;-141.29;100.00
22025;BME280;11176;51.448;6.650;2023-03-18T06:28:59;45458.19;;;-141.29;100.00
22025;BME280;11176;51.448;6.650;2023-03-18T06:31:26;45502.16;;;-141.29;100.00
22025;BME280;11176;51.448;6.650;2023-03-18T06:33:53;45458.19;;;-141.29;100.00
22025;BME280;11176;51.448;6.650;2023-03-18T06:36:21;45454.19;;;-141.29;100.00
22025;BME280;11176;51.448;6.650;2023-03-18T06:38:50;45464.19;;;-141.29;100.00
22025;BME280;11176;51.448;6.650;2023-03-18T06:41:17;45466.19;;;-141.29;100.00
22025;BME280;11176;51.448;6.650;2023-03-18T06:43:58;45474.16;;;-141.29;100.00
22025;BME280;11176;51.448;6.650;2023-03-18T06:46:27;45476.16;;;-141.29;100.00
22025;BME280;11176;51.448;6.650;2023-03-18T06:48:56;45466.19;;;-141.29;100.00
22025;BME280;11176;51.448;6.650;2023-03-18T06:51:27;45470.19;;;-141.29;100.00
22025;BME280;11176;51.448;6.650;2023-03-18T06:53:55;45454.19;;;-141.29;100.00
22025;BME280;11176;51.448;6.650;2023-03-18T06:56:22;45482.16;;;-141.29;100.00
22025;BME280;11176;51.448;6.650;2023-03-18T06:58:58;45472.16;;;-141.29;100.00
22025;BME280;11176;51.448;6.650;2023-03-18T07:01:25;45462.19;;;-141.29;100.00
22025;BME280;11176;51.448;6.650;2023-03-18T07:03:52;45466.19;;;-141.29;100.00
22025;BME280;11176;51.448;6.650;2023-03-18T07:06:19;45470.19;;;-141.29;100.00
22025;BME280;11176;51.448;6.650;2023-03-18T07:08:46;45474.16;;;-141.29;100.00
22025;BME280;11176;51.448;6.650;2023-03-18T07:11:12;45470.19;;;-141.29;100.00
22025;BME280;11176;51.448;6.650;2023-03-18T07:13:41;45490.16;;;-141.29;100.00
22025;BME280;11176;51.448;6.650;2023-03-18T07:16:15;45460.19;;;-141.29;100.00
22025;BME280;11176;51.448;6.650;2023-03-18T07:18:42;45478.16;;;-141.29;100.00
22025;BME280;11176;51.448;6.650;2023-03-18T07:21:10;45478.16;;;-141.29;100.00
22025;BME280;11176;51.448;6.650;2023-03-18T07:23:37;45462.19;;;-141.29;100.00
22025;BME280;11176;51.448;6.650;2023-03-18T07:26:04;45442.19;;;-141.29;100.00
22025;BME280;11176;51.448;6.650;2023-03-18T07:28:30;45452.19;;;-141.29;100.00
22025;BME280;11176;51.448;6.650;2023-03-18T07:30:59;45468.19;;;-141.29;100.00
22025;BME280;11176;51.448;6.650;2023-03-18T07:33:26;45472.16;;;-141.29;100.00
22025;BME280;11176;51.448;6.650;2023-03-18T07:35:52;45470.19;;;-141.29;100.00
22025;BME280;11176;51.448;6.650;2023-03-18T07:38:19;45452.19;;;-141.29;100.00
22025;BME280;11176;51.448;6.650;2023-03-18T07:40:45;45466.19;;;-141.29;100.00
22025;BME280;11176;51.448;6.650;2023-03-18T07:43:12;45474.16;;;-141.29;100.00
22025;BME280;11176;51.448;6.650;2023-03-18T07:45:39;45474.16;;;-141.29;100.00
22025;BME280;11176;51.448;6.650;2023-03-18T07:48:05;45470.19;;;-141.29;100.00
22025;BME280;11176;51.448;6.650;2023-03-18T07:50:33;45474.16;;;-141.29;100.00
22025;BME280;11176;51.448;6.650;2023-03-18T07:52:59;45448.19;;;-141.29;100.00
22025;BME280;11176;51.448;6.650;2023-03-18T07:55:26;45458.19;;;-141.29;100.00
22025;BME280;11176;51.448;6.650;2023-03-18T07:57:52;45466.19;;;-141.29;100.00
22025;BME280;11176;51.448;6.650;2023-03-18T08:00:19;45460.19;;;-141.29;100.00
22025;BME280;11176;51.448;6.650;2023-03-18T08:02:46;45470.19;;;-141.29;100.00
22025;BME280;11176;51.448;6.650;2023-03-18T08:05:13;45464.19;;;-141.29;100.00
22025;BME280;11176;51.448;6.650;2023-03-18T08:07:40;45448.19;;;-141.29;100.00
22025;BME280;11176;51.448;6.650;2023-03-18T08:10:08;45458.19;;;-141.29;100.00
22025;BME280;11176;51.448;6.650;2023-03-18T08:12:35;45446.19;;;-141.29;100.00
22025;BME280;11176;51.448;6.650;2023-03-18T08:15:17;45446.19;;;-141.29;100.00
22025;BME280;11176;51.448;6.650;2023-03-18T08:17:44;45458.19;;;-141.29;100.00
22025;BME280;11176;51.448;6.650;2023-03-18T08:20:11;45446.19;;;-141.29;100.00
22025;BME280;11176;51.448;6.650;2023-03-18T08:22:37;45450.19;;;-141.29;100.00
22025;BME280;11176;51.448;6.650;2023-03-18T08:25:04;45446.19;;;-141.29;100.00
22025;BME280;11176;51.448;6.650;2023-03-18T08:27:30;45438.19;;;-141.29;100.00
22025;BME280;11176;51.448;6.650;2023-03-18T08:29:58;45438.19;;;-141.29;100.00
22025;BME280;11176;51.448;6.650;2023-03-18T08:32:28;45462.19;;;-141.29;100.00
22025;BME280;11176;51.448;6.650;2023-03-18T08:34:55;45438.19;;;-141.29;100.00
22025;BME280;11176;51.448;6.650;2023-03-18T08:37:23;45446.19;;;-141.29;100.00
22025;BME280;11176;51.448;6.650;2023-03-18T08:39:49;45434.19;;;-141.29;100.00
22025;BME280;11176;51.448;6.650;2023-03-18T08:42:16;45458.19;;;-141.29;99.94
22025;BME280;11176;51.448;6.650;2023-03-18T08:44:42;45438.19;;;-141.29;99.54
22025;BME280;11176;51.448;6.650;2023-03-18T08:47:09;45446.19;;;-141.29;99.51
22025;BME280;11176;51.448;6.650;2023-03-18T08:49:35;45454.19;;;-141.29;99.15
22025;BME280;11176;51.448;6.650;2023-03-18T08:52:03;45426.22;;;-141.29;98.33
22025;BME280;11176;51.448;6.650;2023-03-18T08:54:29;45442.19;;;-141.29;98.37
22025;BME280;11176;51.448;6.650;2023-03-18T08:56:56;45442.19;;;-141.29;98.53
22025;BME280;11176;51.448;6.650;2023-03-18T08:59:23;45426.22;;;-141.29;98.24
22025;BME280;11176;51.448;6.650;2023-03-18T09:01:49;45434.19;;;-141.29;98.24
22025;BME280;11176;51.448;6.650;2023-03-18T09:04:16;45452.19;;;-141.29;97.81
22025;BME280;11176;51.448;6.650;2023-03-18T09:06:43;45434.19;;;-141.29;97.35
22025;BME280;11176;51.448;6.650;2023-03-18T09:09:09;45428.22;;;-141.29;96.49
22025;BME280;11176;51.448;6.650;2023-03-18T09:11:37;45430.22;;;-141.29;97.01
22025;BME280;11176;51.448;6.650;2023-03-18T09:14:05;45430.22;;;-141.29;96.45
22025;BME280;11176;51.448;6.650;2023-03-18T09:16:32;45438.19;;;-141.29;96.21
22025;BME280;11176;51.448;6.650;2023-03-18T09:18:58;45422.22;;;-141.29;96.06
22025;BME280;11176;51.448;6.650;2023-03-18T09:21:25;45436.19;;;-141.29;95.44
22025;BME280;11176;51.448;6.650;2023-03-18T09:23:52;45434.19;;;-141.29;95.46
22025;BME280;11176;51.448;6.650;2023-03-18T09:26:19;45408.22;;;-141.29;94.68
22025;BME280;11176;51.448;6.650;2023-03-18T09:28:45;45422.22;;;-141.29;94.39
22025;BME280;11176;51.448;6.650;2023-03-18T09:31:12;45418.22;;;-141.29;94.47
22025;BME280;11176;51.448;6.650;2023-03-18T09:33:41;45428.22;;;-141.29;94.54
22025;BME280;11176;51.448;6.650;2023-03-18T09:36:09;45406.22;;;-141.29;92.75
22025;BME280;11176;51.448;6.650;2023-03-18T09:38:36;45430.22;;;-141.29;91.60
22025;BME280;11176;51.448;6.650;2023-03-18T09:46:48;45418.22;;;-141.29;90.66
22025;BME280;11176;51.448;6.650;2023-03-18T09:49:31;45420.22;;;-141.29;90.43
22025;BME280;11176;51.448;6.650;2023-03-18T09:52:14;45408.22;;;-141.29;88.49
22025;BME280;11176;51.448;6.650;2023-03-18T09:57:34;45390.25;;;-141.29;87.45
22025;BME280;11176;51.448;6.650;2023-03-18T10:00:06;45402.22;;;-141.29;87.54
22025;BME280;11176;51.448;6.650;2023-03-18T10:02:41;45406.22;;;-141.29;87.67
22025;BME280;11176;51.448;6.650;2023-03-18T10:05:17;45400.22;;;-141.29;87.49
22025;BME280;11176;51.448;6.650;2023-03-18T10:07:49;45402.22;;;-141.29;86.55
22025;BME280;11176;51.448;6.650;2023-03-18T10:10:24;45406.22;;;-141.29;85.93
22025;BME280;11176;51.448;6.650;2023-03-18T10:13:04;45396.22;;;-141.29;86.74
22025;BME280;11176;51.448;6.650;2023-03-18T10:15:39;45390.25;;;-141.29;87.48
22025;BME280;11176;51.448;6.650;2023-03-18T10:18:13;45394.22;;;-141.29;86.67
22025;BME280;11176;51.448;6.650;2023-03-18T10:26:34;45378.25;;;-141.29;85.53
22025;BME280;11176;51.448;6.650;2023-03-18T10:31:40;45386.25;;;-141.29;85.50
22025;BME280;11176;51.448;6.650;2023-03-18T10:34:15;45390.25;;;-141.29;85.94
22025;BME280;11176;51.448;6.650;2023-03-18T10:39:21;45386.25;;;-141.29;84.95
22025;BME280;11176;51.448;6.650;2023-03-18T10:41:50;45378.25;;;-141.29;84.60
22025;BME280;11176;51.448;6.650;2023-03-18T10:44:21;45368.25;;;-141.29;84.31
22025;BME280;11176;51.448;6.650;2023-03-18T10:47:00;45368.25;;;-141.29;82.41
22025;BME280;11176;51.448;6.650;2023-03-18T10:49:30;45370.25;;;-141.29;81.87
22025;BME280;11176;51.448;6.650;2023-03-18T10:52:06;45372.25;;;-141.29;82.25
22025;BME280;11176;51.448;6.650;2023-03-18T10:54:44;45370.25;;;-141.29;83.15
22025;BME280;11176;51.448;6.650;2023-03-18T10:57:19;45358.25;;;-141.29;83.56
22025;BME280;11176;51.448;6.650;2023-03-18T10:59:49;45354.25;;;-141.29;83.49
22025;BME280;11176;51.448;6.650;2023-03-18T11:02:21;45362.25;;;-141.29;83.38
22025;BME280;11176;51.448;6.650;2023-03-18T11:05:21;45352.28;;;-141.29;78.95
22025;BME280;11176;51.448;6.650;2023-03-18T11:08:06;45334.28;;;-141.29;77.43
22025;BME280;11176;51.448;6.650;2023-03-18T11:10:43;45334.28;;;-141.29;76.30
22025;BME280;11176;51.448;6.650;2023-03-18T11:13:18;45338.28;;;-141.29;75.19
22025;BME280;11176;51.448;6.650;2023-03-18T11:15:50;45302.31;;;-141.29;76.17
22025;BME280;11176;51.448;6.650;2023-03-18T11:18:21;45328.28;;;-141.29;76.33
22025;BME280;11176;51.448;6.650;2023-03-18T11:20:56;45290.31;;;-141.29;75.89
22025;BME280;11176;51.448;6.650;2023-03-18T11:23:36;45290.31;;;-141.29;73.53
22025;BME280;11176;51.448;6.650;2023-03-18T11:26:26;45272.34;;;-141.29;66.38
22025;BME280;11176;51.448;6.650;2023-03-18T11:28:58;45264.34;;;-141.29;64.33
22025;BME280;11176;51.448;6.650;2023-03-18T11:31:25;45250.34;;;-141.29;63.20
22025;BME280;11176;51.448;6.650;2023-03-18T11:33:57;45252.34;;;-141.29;60.71
22025;BME280;11176;51.448;6.650;2023-03-18T11:36:26;45234.38;;;-141.29;57.40
22025;BME280;11176;51.448;6.650;2023-03-18T11:39:01;45230.38;;;-141.29;58.10
22025;BME280;11176;51.448;6.650;2023-03-18T11:41:29;45222.38;;;-141.29;56.50
22025;BME280;11176;51.448;6.650;2023-03-18T11:46:29;45228.38;;;-141.29;54.93
22025;BME280;11176;51.448;6.650;2023-03-18T11:48:57;45220.38;;;-141.29;55.23
22025;BME280;11176;51.448;6.650;2023-03-18T11:57:08;45202.38;;;-141.29;52.09
22025;BME280;11176;51.448;6.650;2023-03-18T12:05:40;45202.38;;;-141.29;48.99
22025;BME280;11176;51.448;6.650;2023-03-18T12:11:07;45210.38;;;-141.29;47.49
22025;BME280;11176;51.448;6.650;2023-03-18T12:13:58;45178.41;;;-141.29;48.61
22025;BME280;11176;51.448;6.650;2023-03-18T12:16:36;45214.38;;;-141.29;49.56
22025;BME280;11176;51.448;6.650;2023-03-18T12:30:39;45188.41;;;-141.29;44.16
22025;BME280;11176;51.448;6.650;2023-03-18T12:36:00;45192.41;;;-141.29;42.75
22025;BME280;11176;51.448;6.650;2023-03-18T12:42:17;45200.41;;;-141.29;44.22
22025;BME280;11176;51.448;6.650;2023-03-18T12:45:02;45186.41;;;-141.29;44.01
22025;BME280;11176;51.448;6.650;2023-03-18T12:47:39;45178.41;;;-141.29;44.08
22025;BME280;11176;51.448;6.650;2023-03-18T12:50:15;45204.38;;;-141.29;43.27
22025;BME280;11176;51.448;6.650;2023-03-18T12:52:47;45206.38;;;-141.29;43.03
22025;BME280;11176;51.448;6.650;2023-03-18T12:55:20;45206.38;;;-141.29;43.34
22025;BME280;11176;51.448;6.650;2023-03-18T13:03:39;45214.38;;;-141.29;46.03
22025;BME280;11176;51.448;6.650;2023-03-18T13:14:59;45242.34;;;-141.29;46.28
22025;BME280;11176;51.448;6.650;2023-03-18T13:17:37;45230.38;;;-141.29;45.76
22025;BME280;11176;51.448;6.650;2023-03-18T13:20:29;45248.34;;;-141.29;45.39
22025;BME280;11176;51.448;6.650;2023-03-18T13:23:20;45250.34;;;-141.29;47.13
22025;BME280;11176;51.448;6.650;2023-03-18T13:26:03;45270.34;;;-141.29;47.31
22025;BME280;11176;51.448;6.650;2023-03-18T13:36:45;45270.34;;;-141.29;50.67
22025;BME280;11176;51.448;6.650;2023-03-18T13:39:33;45300.31;;;-141.29;52.00
22025;BME280;11176;51.448;6.650;2023-03-18T13:42:34;45278.31;;;-141.29;53.46
22025;BME280;11176;51.448;6.650;2023-03-18T13:45:03;45270.34;;;-141.29;53.77
22025;BME280;11176;51.448;6.650;2023-03-18T13:47:34;45270.34;;;-141.29;54.38
22025;BME280;11176;51.448;6.650;2023-03-18T13:52:53;45294.31;;;-141.29;57.17
22025;BME280;11176;51.448;6.650;2023-03-18T13:55:33;45294.31;;;-141.29;66.28
22025;BME280;11176;51.448;6.650;2023-03-18T14:08:55;45326.28;;;-141.29;93.74
22025;BME280;11176;51.448;6.650;2023-03-18T14:13:52;45340.28;;;-141.29;95.21
22025;BME280;11176;51.448;6.650;2023-03-18T14:16:26;45342.28;;;-141.29;97.12
22025;BME280;11176;51.448;6.650;2023-03-18T14:19:00;45340.28;;;-141.29;98.09
22025;BME280;11176;51.448;6.650;2023-03-18T14:21:29;45338.28;;;-141.29;99.85
22025;BME280;11176;51.448;6.650;2023-03-18T14:24:10;45336.28;;;-141.29;100.00
22025;BME280;11176;51.448;6.650;2023-03-18T14:26:37;45338.28;;;-141.29;100.00
22025;BME280;11176;51.448;6.650;2023-03-18T14:39:14;45348.28;;;-141.29;100.00
22025;BME280;11176;51.448;6.650;2023-03-18T14:41:46;45354.25;;;-141.29;100.00
22025;BME280;11176;51.448;6.650;2023-03-18T14:44:19;45358.25;;;-141.29;100.00